Beit Lahm, Israel
Current Conditions -  °F | °C
As of 11:20 PM on Wednesday 26 Nov 2014 (Local Time) from LLBG Reporting Station
Scattered Clouds Scattered Clouds  
Wind Chill: 63°   Ceiling: Unl
Heat Index: 63°   Visibility: 6mi
Dew Point: 52°   Wind: 6mph
Humidity: 68%   Direction: 260°W
Pressure: 29.97"   Gusts: NA
Location:  31.72°N, 35.2°E
Report Text: LLBG 262020Z 26005KT 9999 SCT030 17/11 Q1015 NOSIG RMK REP AT1925Z 2500FT-WIND 280/28KT
Loading
Personal Weather Stations






























Interactive Weather Map New forecast layout! Learn more

10-Day Weather Forecast

Advertisements
Track Severe Weather on mobile